sensor_id;sensor_type;location;lat;lon;timestamp;temperature;humidity
6690;DHT22;3382;51.576;8.076;2022-10-17T00:01:04;15.40;99.90
6690;DHT22;3382;51.576;8.076;2022-10-17T00:03:31;15.40;99.90
6690;DHT22;3382;51.576;8.076;2022-10-17T00:05:56;15.40;99.90
6690;DHT22;3382;51.576;8.076;2022-10-17T00:08:22;15.30;99.90
6690;DHT22;3382;51.576;8.076;2022-10-17T00:11:01;15.30;99.90
6690;DHT22;3382;51.576;8.076;2022-10-17T00:13:27;15.30;99.90
6690;DHT22;3382;51.576;8.076;2022-10-17T00:15:53;15.30;99.90
6690;DHT22;3382;51.576;8.076;2022-10-17T00:18:19;15.40;99.90
6690;DHT22;3382;51.576;8.076;2022-10-17T00:20:45;15.30;99.90
6690;DHT22;3382;51.576;8.076;2022-10-17T00:23:10;15.20;99.90
6690;DHT22;3382;51.576;8.076;2022-10-17T00:25:36;15.10;99.90
6690;DHT22;3382;51.576;8.076;2022-10-17T00:28:02;15.10;99.90
6690;DHT22;3382;51.576;8.076;2022-10-17T00:30:28;15.10;99.90
6690;DHT22;3382;51.576;8.076;2022-10-17T00:32:53;15.10;99.90
6690;DHT22;3382;51.576;8.076;2022-10-17T00:35:19;15.10;99.90
6690;DHT22;3382;51.576;8.076;2022-10-17T00:37:45;15.10;99.90
6690;DHT22;3382;51.576;8.076;2022-10-17T00:40:11;15.10;99.90
6690;DHT22;3382;51.576;8.076;2022-10-17T00:42:36;15.00;99.90
6690;DHT22;3382;51.576;8.076;2022-10-17T00:47:40;15.10;99.90
6690;DHT22;3382;51.576;8.076;2022-10-17T00:50:06;15.00;99.90
6690;DHT22;3382;51.576;8.076;2022-10-17T00:52:32;15.10;99.90
6690;DHT22;3382;51.576;8.076;2022-10-17T00:55:07;15.00;99.90
6690;DHT22;3382;51.576;8.076;2022-10-17T00:57:33;15.00;99.90
6690;DHT22;3382;51.576;8.076;2022-10-17T01:00:01;15.00;99.90
6690;DHT22;3382;51.576;8.076;2022-10-17T01:02:28;15.00;99.90
6690;DHT22;3382;51.576;8.076;2022-10-17T01:04:55;15.00;99.90
6690;DHT22;3382;51.576;8.076;2022-10-17T01:07:21;15.00;99.90
6690;DHT22;3382;51.576;8.076;2022-10-17T01:09:47;14.90;99.90
6690;DHT22;3382;51.576;8.076;2022-10-17T01:14:58;14.90;99.90
6690;DHT22;3382;51.576;8.076;2022-10-17T01:22:54;14.90;99.90
6690;DHT22;3382;51.576;8.076;2022-10-17T01:28:49;14.80;99.90
6690;DHT22;3382;51.576;8.076;2022-10-17T01:31:26;14.90;99.90
6690;DHT22;3382;51.576;8.076;2022-10-17T01:41:43;14.90;99.90
6690;DHT22;3382;51.576;8.076;2022-10-17T01:44:18;14.90;99.90
6690;DHT22;3382;51.576;8.076;2022-10-17T01:46:49;14.90;99.90
6690;DHT22;3382;51.576;8.076;2022-10-17T01:49:18;14.90;99.90
6690;DHT22;3382;51.576;8.076;2022-10-17T01:51:59;14.90;99.90
6690;DHT22;3382;51.576;8.076;2022-10-17T01:54:36;14.90;99.90
6690;DHT22;3382;51.576;8.076;2022-10-17T01:57:07;15.00;99.90
6690;DHT22;3382;51.576;8.076;2022-10-17T01:59:43;14.90;99.90
6690;DHT22;3382;51.576;8.076;2022-10-17T02:02:12;15.00;99.90
6690;DHT22;3382;51.576;8.076;2022-10-17T02:04:39;15.10;99.90
6690;DHT22;3382;51.576;8.076;2022-10-17T02:07:10;15.10;99.90
6690;DHT22;3382;51.576;8.076;2022-10-17T02:09:37;15.20;99.90
6690;DHT22;3382;51.576;8.076;2022-10-17T02:20:33;15.40;99.90
6690;DHT22;3382;51.576;8.076;2022-10-17T02:23:19;15.40;99.90
6690;DHT22;3382;51.576;8.076;2022-10-17T02:28:31;15.50;99.90
6690;DHT22;3382;51.576;8.076;2022-10-17T02:31:12;15.70;99.90
6690;DHT22;3382;51.576;8.076;2022-10-17T02:33:50;15.70;99.90
6690;DHT22;3382;51.576;8.076;2022-10-17T02:36:21;15.70;99.90
6690;DHT22;3382;51.576;8.076;2022-10-17T02:38:49;15.80;99.90
6690;DHT22;3382;51.576;8.076;2022-10-17T02:41:17;15.80;99.90
6690;DHT22;3382;51.576;8.076;2022-10-17T02:43:43;15.90;99.90
6690;DHT22;3382;51.576;8.076;2022-10-17T02:46:12;15.90;99.90
6690;DHT22;3382;51.576;8.076;2022-10-17T02:48:51;16.00;99.90
6690;DHT22;3382;51.576;8.076;2022-10-17T02:53:59;16.10;99.90
6690;DHT22;3382;51.576;8.076;2022-10-17T02:56:31;16.20;99.90
6690;DHT22;3382;51.576;8.076;2022-10-17T02:58:59;16.40;99.90
6690;DHT22;3382;51.576;8.076;2022-10-17T03:01:25;16.60;99.90
6690;DHT22;3382;51.576;8.076;2022-10-17T03:04:12;16.80;99.90
6690;DHT22;3382;51.576;8.076;2022-10-17T03:06:39;17.00;99.90
6690;DHT22;3382;51.576;8.076;2022-10-17T03:09:06;17.20;99.90
6690;DHT22;3382;51.576;8.076;2022-10-17T03:11:32;17.30;99.90
6690;DHT22;3382;51.576;8.076;2022-10-17T03:13:58;17.40;99.90
6690;DHT22;3382;51.576;8.076;2022-10-17T03:16:24;17.40;99.90
6690;DHT22;3382;51.576;8.076;2022-10-17T03:18:49;17.60;99.90
6690;DHT22;3382;51.576;8.076;2022-10-17T03:21:15;17.70;99.90
6690;DHT22;3382;51.576;8.076;2022-10-17T03:23:40;17.70;99.90
6690;DHT22;3382;51.576;8.076;2022-10-17T03:26:06;17.80;99.90
6690;DHT22;3382;51.576;8.076;2022-10-17T03:28:32;17.90;99.90
6690;DHT22;3382;51.576;8.076;2022-10-17T03:30:58;17.90;99.90
6690;DHT22;3382;51.576;8.076;2022-10-17T03:33:24;18.00;99.90
6690;DHT22;3382;51.576;8.076;2022-10-17T03:35:49;18.00;99.90
6690;DHT22;3382;51.576;8.076;2022-10-17T03:38:15;18.10;99.90
6690;DHT22;3382;51.576;8.076;2022-10-17T03:40:40;18.00;99.90
6690;DHT22;3382;51.576;8.076;2022-10-17T03:43:06;18.10;99.90
6690;DHT22;3382;51.576;8.076;2022-10-17T03:45:32;18.10;99.90
6690;DHT22;3382;51.576;8.076;2022-10-17T03:47:58;18.20;99.90
6690;DHT22;3382;51.576;8.076;2022-10-17T03:50:24;18.20;99.90
6690;DHT22;3382;51.576;8.076;2022-10-17T03:52:49;18.20;99.90
6690;DHT22;3382;51.576;8.076;2022-10-17T03:55:16;18.20;99.90
6690;DHT22;3382;51.576;8.076;2022-10-17T03:57:41;18.30;99.90
6690;DHT22;3382;51.576;8.076;2022-10-17T04:00:08;18.30;99.90
6690;DHT22;3382;51.576;8.076;2022-10-17T04:02:33;18.40;99.90
6690;DHT22;3382;51.576;8.076;2022-10-17T04:05:00;18.50;99.90
6690;DHT22;3382;51.576;8.076;2022-10-17T04:07:26;18.60;99.90
6690;DHT22;3382;51.576;8.076;2022-10-17T04:09:51;18.80;99.90
6690;DHT22;3382;51.576;8.076;2022-10-17T04:12:17;18.90;99.90
6690;DHT22;3382;51.576;8.076;2022-10-17T04:14:42;19.10;99.90
6690;DHT22;3382;51.576;8.076;2022-10-17T04:17:08;19.20;99.90
6690;DHT22;3382;51.576;8.076;2022-10-17T04:19:34;19.30;99.90
6690;DHT22;3382;51.576;8.076;2022-10-17T04:22:00;19.30;99.90
6690;DHT22;3382;51.576;8.076;2022-10-17T04:24:27;19.30;99.90
6690;DHT22;3382;51.576;8.076;2022-10-17T04:26:53;19.40;99.90
6690;DHT22;3382;51.576;8.076;2022-10-17T04:29:19;19.50;99.90
6690;DHT22;3382;51.576;8.076;2022-10-17T04:31:45;19.50;99.90
6690;DHT22;3382;51.576;8.076;2022-10-17T04:34:11;19.50;99.90
6690;DHT22;3382;51.576;8.076;2022-10-17T04:36:38;19.60;99.90
6690;DHT22;3382;51.576;8.076;2022-10-17T04:39:04;19.60;99.90
6690;DHT22;3382;51.576;8.076;2022-10-17T04:41:30;19.60;99.90
6690;DHT22;3382;51.576;8.076;2022-10-17T04:43:55;19.70;99.90
6690;DHT22;3382;51.576;8.076;2022-10-17T04:46:21;19.70;99.90
6690;DHT22;3382;51.576;8.076;2022-10-17T04:48:46;19.80;99.90
6690;DHT22;3382;51.576;8.076;2022-10-17T04:51:17;19.90;99.90
6690;DHT22;3382;51.576;8.076;2022-10-17T04:53:43;19.90;99.90
6690;DHT22;3382;51.576;8.076;2022-10-17T04:56:13;20.00;99.90
6690;DHT22;3382;51.576;8.076;2022-10-17T04:58:39;20.00;99.90
6690;DHT22;3382;51.576;8.076;2022-10-17T05:01:13;20.00;99.90
6690;DHT22;3382;51.576;8.076;2022-10-17T05:03:39;20.10;99.90
6690;DHT22;3382;51.576;8.076;2022-10-17T05:06:14;20.10;99.90
6690;DHT22;3382;51.576;8.076;2022-10-17T05:08:40;20.10;99.90
6690;DHT22;3382;51.576;8.076;2022-10-17T05:11:18;20.10;99.90
6690;DHT22;3382;51.576;8.076;2022-10-17T05:13:48;20.10;99.90
6690;DHT22;3382;51.576;8.076;2022-10-17T05:16:14;20.00;99.90
6690;DHT22;3382;51.576;8.076;2022-10-17T05:18:39;20.00;99.90
6690;DHT22;3382;51.576;8.076;2022-10-17T05:21:05;20.00;99.90
6690;DHT22;3382;51.576;8.076;2022-10-17T05:23:30;20.10;99.90
6690;DHT22;3382;51.576;8.076;2022-10-17T05:25:56;20.10;99.90
6690;DHT22;3382;51.576;8.076;2022-10-17T05:28:22;20.10;99.90
6690;DHT22;3382;51.576;8.076;2022-10-17T05:30:48;20.10;99.90
6690;DHT22;3382;51.576;8.076;2022-10-17T05:33:14;20.20;99.90
6690;DHT22;3382;51.576;8.076;2022-10-17T05:35:40;20.20;99.90
6690;DHT22;3382;51.576;8.076;2022-10-17T05:38:05;20.20;99.90
6690;DHT22;3382;51.576;8.076;2022-10-17T05:40:31;20.20;99.90
6690;DHT22;3382;51.576;8.076;2022-10-17T05:42:56;20.30;99.90
6690;DHT22;3382;51.576;8.076;2022-10-17T05:45:22;20.30;99.90
6690;DHT22;3382;51.576;8.076;2022-10-17T05:47:47;20.40;99.90
6690;DHT22;3382;51.576;8.076;2022-10-17T05:50:13;20.50;99.90
6690;DHT22;3382;51.576;8.076;2022-10-17T05:52:39;20.50;99.90
6690;DHT22;3382;51.576;8.076;2022-10-17T05:55:05;20.50;99.90
6690;DHT22;3382;51.576;8.076;2022-10-17T05:57:30;20.50;99.90
6690;DHT22;3382;51.576;8.076;2022-10-17T05:59:56;20.60;99.90
6690;DHT22;3382;51.576;8.076;2022-10-17T06:02:22;20.70;99.90
6690;DHT22;3382;51.576;8.076;2022-10-17T06:04:47;20.70;99.90
6690;DHT22;3382;51.576;8.076;2022-10-17T06:07:15;20.90;99.90
6690;DHT22;3382;51.576;8.076;2022-10-17T06:09:41;21.00;99.90
6690;DHT22;3382;51.576;8.076;2022-10-17T06:12:07;20.90;99.90
6690;DHT22;3382;51.576;8.076;2022-10-17T06:14:32;20.90;99.90
6690;DHT22;3382;51.576;8.076;2022-10-17T06:16:58;21.00;99.90
6690;DHT22;3382;51.576;8.076;2022-10-17T06:19:24;21.10;99.90
6690;DHT22;3382;51.576;8.076;2022-10-17T06:21:50;21.10;99.90
6690;DHT22;3382;51.576;8.076;2022-10-17T06:24:16;21.10;99.90
6690;DHT22;3382;51.576;8.076;2022-10-17T06:26:41;20.90;99.90
6690;DHT22;3382;51.576;8.076;2022-10-17T06:29:07;20.90;99.90
6690;DHT22;3382;51.576;8.076;2022-10-17T06:31:33;20.90;99.90
6690;DHT22;3382;51.576;8.076;2022-10-17T06:33:58;20.90;99.90
6690;DHT22;3382;51.576;8.076;2022-10-17T06:36:24;21.00;99.90
6690;DHT22;3382;51.576;8.076;2022-10-17T06:38:49;21.00;99.90
6690;DHT22;3382;51.576;8.076;2022-10-17T06:41:16;21.10;99.90
6690;DHT22;3382;51.576;8.076;2022-10-17T06:43:44;21.30;99.90
6690;DHT22;3382;51.576;8.076;2022-10-17T06:46:14;21.30;99.90
6690;DHT22;3382;51.576;8.076;2022-10-17T06:48:41;21.40;99.90
6690;DHT22;3382;51.576;8.076;2022-10-17T06:51:06;21.50;99.90
6690;DHT22;3382;51.576;8.076;2022-10-17T06:53:34;21.60;99.90
6690;DHT22;3382;51.576;8.076;2022-10-17T06:56:00;21.70;99.90
6690;DHT22;3382;51.576;8.076;2022-10-17T06:58:28;21.80;99.90
6690;DHT22;3382;51.576;8.076;2022-10-17T07:01:02;21.80;99.90
6690;DHT22;3382;51.576;8.076;2022-10-17T07:03:29;22.00;99.90
6690;DHT22;3382;51.576;8.076;2022-10-17T07:05:55;22.10;99.90
6690;DHT22;3382;51.576;8.076;2022-10-17T07:08:21;22.30;99.90
6690;DHT22;3382;51.576;8.076;2022-10-17T07:10:47;22.40;99.90
6690;DHT22;3382;51.576;8.076;2022-10-17T07:13:13;22.40;99.90
6690;DHT22;3382;51.576;8.076;2022-10-17T07:15:39;22.50;99.90
6690;DHT22;3382;51.576;8.076;2022-10-17T07:18:05;22.50;99.90
6690;DHT22;3382;51.576;8.076;2022-10-17T07:20:31;22.50;99.90
6690;DHT22;3382;51.576;8.076;2022-10-17T07:22:57;22.60;99.90
6690;DHT22;3382;51.576;8.076;2022-10-17T07:25:23;22.50;99.90
6690;DHT22;3382;51.576;8.076;2022-10-17T07:27:49;22.50;99.90
6690;DHT22;3382;51.576;8.076;2022-10-17T07:30:15;22.50;99.90
6690;DHT22;3382;51.576;8.076;2022-10-17T07:32:41;22.60;99.90
6690;DHT22;3382;51.576;8.076;2022-10-17T07:35:08;22.60;99.90
6690;DHT22;3382;51.576;8.076;2022-10-17T07:37:34;22.60;99.90
6690;DHT22;3382;51.576;8.076;2022-10-17T07:39:59;22.50;99.90
6690;DHT22;3382;51.576;8.076;2022-10-17T07:42:25;22.60;99.90
6690;DHT22;3382;51.576;8.076;2022-10-17T07:44:53;22.50;99.90
6690;DHT22;3382;51.576;8.076;2022-10-17T07:47:18;22.50;99.90
6690;DHT22;3382;51.576;8.076;2022-10-17T07:49:44;22.50;99.90
6690;DHT22;3382;51.576;8.076;2022-10-17T07:52:10;22.50;99.90
6690;DHT22;3382;51.576;8.076;2022-10-17T07:54:36;22.50;99.90
6690;DHT22;3382;51.576;8.076;2022-10-17T07:57:02;22.50;99.90
6690;DHT22;3382;51.576;8.076;2022-10-17T07:59:28;22.50;99.90
6690;DHT22;3382;51.576;8.076;2022-10-17T08:01:56;22.60;99.90
6690;DHT22;3382;51.576;8.076;2022-10-17T08:04:22;22.70;99.90
6690;DHT22;3382;51.576;8.076;2022-10-17T08:06:48;22.80;99.90
6690;DHT22;3382;51.576;8.076;2022-10-17T08:09:14;22.80;99.90
6690;DHT22;3382;51.576;8.076;2022-10-17T08:11:40;22.90;99.90
6690;DHT22;3382;51.576;8.076;2022-10-17T08:14:09;22.90;99.90
6690;DHT22;3382;51.576;8.076;2022-10-17T08:16:35;22.90;99.90
6690;DHT22;3382;51.576;8.076;2022-10-17T08:19:01;22.90;99.90
6690;DHT22;3382;51.576;8.076;2022-10-17T08:21:26;22.90;99.90
6690;DHT22;3382;51.576;8.076;2022-10-17T08:23:52;22.90;99.90
6690;DHT22;3382;51.576;8.076;2022-10-17T08:26:18;22.80;99.90
6690;DHT22;3382;51.576;8.076;2022-10-17T08:28:45;22.80;99.90
6690;DHT22;3382;51.576;8.076;2022-10-17T08:31:15;22.80;99.90
6690;DHT22;3382;51.576;8.076;2022-10-17T08:33:45;22.80;99.90
6690;DHT22;3382;51.576;8.076;2022-10-17T08:36:18;22.90;99.90
6690;DHT22;3382;51.576;8.076;2022-10-17T08:38:45;23.00;99.90
6690;DHT22;3382;51.576;8.076;2022-10-17T08:46:35;23.10;99.90
6690;DHT22;3382;51.576;8.076;2022-10-17T08:49:03;23.10;99.90
6690;DHT22;3382;51.576;8.076;2022-10-17T08:51:33;23.10;99.90
6690;DHT22;3382;51.576;8.076;2022-10-17T08:54:19;23.10;99.90
6690;DHT22;3382;51.576;8.076;2022-10-17T08:56:51;23.10;99.90
6690;DHT22;3382;51.576;8.076;2022-10-17T08:59:25;23.10;99.90
6690;DHT22;3382;51.576;8.076;2022-10-17T09:02:07;23.20;99.90
6690;DHT22;3382;51.576;8.076;2022-10-17T09:15:33;23.30;99.90
6690;DHT22;3382;51.576;8.076;2022-10-17T09:20:51;23.40;99.90
6690;DHT22;3382;51.576;8.076;2022-10-17T09:25:49;23.50;99.90
6690;DHT22;3382;51.576;8.076;2022-10-17T09:30:58;23.60;99.90
6690;DHT22;3382;51.576;8.076;2022-10-17T09:33:32;23.60;99.90
6690;DHT22;3382;51.576;8.076;2022-10-17T09:35:59;23.70;99.90
6690;DHT22;3382;51.576;8.076;2022-10-17T09:38:35;23.70;99.90
6690;DHT22;3382;51.576;8.076;2022-10-17T09:41:02;23.60;99.90
6690;DHT22;3382;51.576;8.076;2022-10-17T09:43:28;23.70;99.90
6690;DHT22;3382;51.576;8.076;2022-10-17T09:46:20;23.70;99.90
6690;DHT22;3382;51.576;8.076;2022-10-17T09:49:11;23.70;99.90
6690;DHT22;3382;51.576;8.076;2022-10-17T09:51:38;23.70;99.90
6690;DHT22;3382;51.576;8.076;2022-10-17T09:54:22;23.70;99.90
6690;DHT22;3382;51.576;8.076;2022-10-17T09:57:03;23.80;99.90
6690;DHT22;3382;51.576;8.076;2022-10-17T09:59:41;23.70;99.90
6690;DHT22;3382;51.576;8.076;2022-10-17T10:02:19;23.70;99.90
6690;DHT22;3382;51.576;8.076;2022-10-17T10:07:16;23.80;99.90
6690;DHT22;3382;51.576;8.076;2022-10-17T10:09:46;23.80;99.90
6690;DHT22;3382;51.576;8.076;2022-10-17T10:12:38;23.90;99.90
6690;DHT22;3382;51.576;8.076;2022-10-17T10:21:06;24.00;99.90
6690;DHT22;3382;51.576;8.076;2022-10-17T10:23:32;24.00;99.90
6690;DHT22;3382;51.576;8.076;2022-10-17T10:26:01;24.00;99.90
6690;DHT22;3382;51.576;8.076;2022-10-17T10:28:30;24.00;99.90
6690;DHT22;3382;51.576;8.076;2022-10-17T10:30:59;24.00;99.90
6690;DHT22;3382;51.576;8.076;2022-10-17T10:33:27;24.10;99.90
6690;DHT22;3382;51.576;8.076;2022-10-17T10:36:02;24.10;99.90
6690;DHT22;3382;51.576;8.076;2022-10-17T10:38:31;24.20;99.90
6690;DHT22;3382;51.576;8.076;2022-10-17T10:41:05;24.20;99.90
6690;DHT22;3382;51.576;8.076;2022-10-17T10:43:43;24.30;99.90
6690;DHT22;3382;51.576;8.076;2022-10-17T10:46:20;24.40;99.90
6690;DHT22;3382;51.576;8.076;2022-10-17T10:49:00;24.30;99.90
6690;DHT22;3382;51.576;8.076;2022-10-17T10:51:41;24.20;99.90
6690;DHT22;3382;51.576;8.076;2022-10-17T10:54:27;24.10;99.90
6690;DHT22;3382;51.576;8.076;2022-10-17T10:57:00;24.00;99.90
6690;DHT22;3382;51.576;8.076;2022-10-17T10:59:43;24.00;99.90
6690;DHT22;3382;51.576;8.076;2022-10-17T11:07:34;24.20;99.90
6690;DHT22;3382;51.576;8.076;2022-10-17T11:12:53;24.20;99.90
6690;DHT22;3382;51.576;8.076;2022-10-17T11:15:29;24.30;99.90
6690;DHT22;3382;51.576;8.076;2022-10-17T11:18:25;24.30;99.90
6690;DHT22;3382;51.576;8.076;2022-10-17T11:21:46;24.40;99.90
6690;DHT22;3382;51.576;8.076;2022-10-17T11:23:52;24.40;99.90
6690;DHT22;3382;51.576;8.076;2022-10-17T11:26:32;24.40;99.90
6690;DHT22;3382;51.576;8.076;2022-10-17T11:29:02;24.40;99.90
6690;DHT22;3382;51.576;8.076;2022-10-17T11:31:35;24.40;99.90
6690;DHT22;3382;51.576;8.076;2022-10-17T11:34:11;24.40;99.90
6690;DHT22;3382;51.576;8.076;2022-10-17T11:36:45;24.40;99.90
6690;DHT22;3382;51.576;8.076;2022-10-17T11:39:19;24.40;99.90
6690;DHT22;3382;51.576;8.076;2022-10-17T11:41:52;24.40;99.90
6690;DHT22;3382;51.576;8.076;2022-10-17T11:47:35;24.40;99.90
6690;DHT22;3382;51.576;8.076;2022-10-17T11:50:32;24.40;99.90
6690;DHT22;3382;51.576;8.076;2022-10-17T11:53:00;24.40;99.90
6690;DHT22;3382;51.576;8.076;2022-10-17T11:55:29;24.30;99.90
6690;DHT22;3382;51.576;8.076;2022-10-17T12:09:01;24.30;99.90
6690;DHT22;3382;51.576;8.076;2022-10-17T12:11:41;24.20;99.90
6690;DHT22;3382;51.576;8.076;2022-10-17T12:14:47;24.10;99.90
6690;DHT22;3382;51.576;8.076;2022-10-17T12:17:31;24.00;99.90
6690;DHT22;3382;51.576;8.076;2022-10-17T12:22:53;23.90;99.90
6690;DHT22;3382;51.576;8.076;2022-10-17T12:25:25;23.80;99.90
6690;DHT22;3382;51.576;8.076;2022-10-17T12:30:32;23.80;99.90
6690;DHT22;3382;51.576;8.076;2022-10-17T12:33:02;23.80;99.90
6690;DHT22;3382;51.576;8.076;2022-10-17T12:35:32;23.80;99.90
6690;DHT22;3382;51.576;8.076;2022-10-17T12:38:01;23.90;99.90
6690;DHT22;3382;51.576;8.076;2022-10-17T12:45:52;24.00;99.90
6690;DHT22;3382;51.576;8.076;2022-10-17T12:51:14;24.00;99.90
6690;DHT22;3382;51.576;8.076;2022-10-17T12:56:43;24.10;99.90
6690;DHT22;3382;51.576;8.076;2022-10-17T12:59:16;24.20;99.90
6690;DHT22;3382;51.576;8.076;2022-10-17T13:01:46;24.20;99.90
6690;DHT22;3382;51.576;8.076;2022-10-17T13:04:12;24.30;99.90
6690;DHT22;3382;51.576;8.076;2022-10-17T13:06:50;24.30;99.90
6690;DHT22;3382;51.576;8.076;2022-10-17T13:09:30;24.40;99.90
6690;DHT22;3382;51.576;8.076;2022-10-17T13:11:59;24.40;99.90
6690;DHT22;3382;51.576;8.076;2022-10-17T13:14:26;24.40;99.90
6690;DHT22;3382;51.576;8.076;2022-10-17T13:16:54;24.40;99.90
6690;DHT22;3382;51.576;8.076;2022-10-17T13:19:23;24.50;99.90
6690;DHT22;3382;51.576;8.076;2022-10-17T13:24:42;24.40;99.90
6690;DHT22;3382;51.576;8.076;2022-10-17T13:27:40;24.40;99.90
6690;DHT22;3382;51.576;8.076;2022-10-17T13:32:49;24.40;99.90
6690;DHT22;3382;51.576;8.076;2022-10-17T13:35:30;24.30;99.90
6690;DHT22;3382;51.576;8.076;2022-10-17T13:37:59;24.30;99.90
6690;DHT22;3382;51.576;8.076;2022-10-17T13:40:28;24.30;99.90
6690;DHT22;3382;51.576;8.076;2022-10-17T13:42:56;24.40;99.90
6690;DHT22;3382;51.576;8.076;2022-10-17T13:45:35;24.40;99.90
6690;DHT22;3382;51.576;8.076;2022-10-17T13:48:14;24.40;99.90
6690;DHT22;3382;51.576;8.076;2022-10-17T13:50:41;24.40;99.90
6690;DHT22;3382;51.576;8.076;2022-10-17T13:53:14;24.50;99.90
6690;DHT22;3382;51.576;8.076;2022-10-17T13:56:32;24.40;99.90
6690;DHT22;3382;51.576;8.076;2022-10-17T13:58:49;24.50;99.90
6690;DHT22;3382;51.576;8.076;2022-10-17T14:01:16;24.50;99.90
6690;DHT22;3382;51.576;8.076;2022-10-17T14:03:44;24.50;99.90
6690;DHT22;3382;51.576;8.076;2022-10-17T14:06:22;24.50;99.90
6690;DHT22;3382;51.576;8.076;2022-10-17T14:08:57;24.60;99.90
6690;DHT22;3382;51.576;8.076;2022-10-17T14:13:57;24.60;99.90
6690;DHT22;3382;51.576;8.076;2022-10-17T14:16:24;24.60;99.90
6690;DHT22;3382;51.576;8.076;2022-10-17T14:18:52;24.60;99.90
6690;DHT22;3382;51.576;8.076;2022-10-17T14:21:23;24.60;99.90
6690;DHT22;3382;51.576;8.076;2022-10-17T14:23:51;24.60;99.90
6690;DHT22;3382;51.576;8.076;2022-10-17T14:26:22;24.60;99.90
6690;DHT22;3382;51.576;8.076;2022-10-17T14:29:02;24.60;99.90
6690;DHT22;3382;51.576;8.076;2022-10-17T14:31:31;24.60;99.90
6690;DHT22;3382;51.576;8.076;2022-10-17T14:33:57;24.70;99.90
6690;DHT22;3382;51.576;8.076;2022-10-17T14:36:39;24.70;99.90
6690;DHT22;3382;51.576;8.076;2022-10-17T14:39:15;24.70;99.90
6690;DHT22;3382;51.576;8.076;2022-10-17T14:41:43;24.60;99.90
6690;DHT22;3382;51.576;8.076;2022-10-17T14:44:25;24.60;99.90
6690;DHT22;3382;51.576;8.076;2022-10-17T14:46:58;24.50;99.90
6690;DHT22;3382;51.576;8.076;2022-10-17T14:49:35;24.40;99.90
6690;DHT22;3382;51.576;8.076;2022-10-17T14:54:37;24.00;99.90
6690;DHT22;3382;51.576;8.076;2022-10-17T14:57:23;24.00;99.90
6690;DHT22;3382;51.576;8.076;2022-10-17T14:59:49;23.90;99.90
6690;DHT22;3382;51.576;8.076;2022-10-17T15:02:14;23.90;99.90
6690;DHT22;3382;51.576;8.076;2022-10-17T15:04:40;23.90;99.90
6690;DHT22;3382;51.576;8.076;2022-10-17T15:07:08;23.90;99.90
6690;DHT22;3382;51.576;8.076;2022-10-17T15:09:34;23.90;99.90
6690;DHT22;3382;51.576;8.076;2022-10-17T15:12:01;23.90;99.90
6690;DHT22;3382;51.576;8.076;2022-10-17T15:14:27;24.00;99.90
6690;DHT22;3382;51.576;8.076;2022-10-17T15:16:53;24.00;99.90
6690;DHT22;3382;51.576;8.076;2022-10-17T15:19:18;24.00;99.90
6690;DHT22;3382;51.576;8.076;2022-10-17T15:21:44;24.00;99.90
6690;DHT22;3382;51.576;8.076;2022-10-17T15:24:09;24.00;99.90
6690;DHT22;3382;51.576;8.076;2022-10-17T15:26:35;24.10;99.90
6690;DHT22;3382;51.576;8.076;2022-10-17T15:29:01;24.10;99.90
6690;DHT22;3382;51.576;8.076;2022-10-17T15:31:29;24.10;99.90
6690;DHT22;3382;51.576;8.076;2022-10-17T15:33:55;24.20;99.90
6690;DHT22;3382;51.576;8.076;2022-10-17T15:36:24;24.20;99.90
6690;DHT22;3382;51.576;8.076;2022-10-17T15:38:52;24.20;99.90
6690;DHT22;3382;51.576;8.076;2022-10-17T15:41:20;24.30;99.90
6690;DHT22;3382;51.576;8.076;2022-10-17T15:43:47;24.30;99.90
6690;DHT22;3382;51.576;8.076;2022-10-17T15:46:23;24.30;99.90
6690;DHT22;3382;51.576;8.076;2022-10-17T15:48:50;24.30;99.90
6690;DHT22;3382;51.576;8.076;2022-10-17T15:51:16;24.30;99.90
6690;DHT22;3382;51.576;8.076;2022-10-17T15:53:42;24.40;99.90
6690;DHT22;3382;51.576;8.076;2022-10-17T15:56:22;24.40;99.90
6690;DHT22;3382;51.576;8.076;2022-10-17T15:58:48;24.40;99.90
6690;DHT22;3382;51.576;8.076;2022-10-17T16:01:25;24.40;99.90
6690;DHT22;3382;51.576;8.076;2022-10-17T16:03:52;24.50;99.90
6690;DHT22;3382;51.576;8.076;2022-10-17T16:06:18;24.40;99.90
6690;DHT22;3382;51.576;8.076;2022-10-17T16:08:45;24.30;99.90
6690;DHT22;3382;51.576;8.076;2022-10-17T16:11:40;24.30;99.90
6690;DHT22;3382;51.576;8.076;2022-10-17T16:14:11;24.30;99.90
6690;DHT22;3382;51.576;8.076;2022-10-17T16:16:37;24.10;99.90
6690;DHT22;3382;51.576;8.076;2022-10-17T16:19:03;24.10;99.90
6690;DHT22;3382;51.576;8.076;2022-10-17T16:21:32;24.20;99.90
6690;DHT22;3382;51.576;8.076;2022-10-17T16:23:58;24.20;99.90
6690;DHT22;3382;51.576;8.076;2022-10-17T16:26:25;24.20;99.90
6690;DHT22;3382;51.576;8.076;2022-10-17T16:28:51;24.30;99.90
6690;DHT22;3382;51.576;8.076;2022-10-17T16:31:21;24.40;99.90
6690;DHT22;3382;51.576;8.076;2022-10-17T16:33:49;24.40;99.90
6690;DHT22;3382;51.576;8.076;2022-10-17T16:36:15;24.40;99.90
6690;DHT22;3382;51.576;8.076;2022-10-17T16:38:40;24.40;99.90
6690;DHT22;3382;51.576;8.076;2022-10-17T16:43:48;24.10;99.90
6690;DHT22;3382;51.576;8.076;2022-10-17T16:46:14;23.90;99.90
6690;DHT22;3382;51.576;8.076;2022-10-17T16:48:41;23.60;99.90
6690;DHT22;3382;51.576;8.076;2022-10-17T16:51:07;23.50;99.90
6690;DHT22;3382;51.576;8.076;2022-10-17T16:53:33;23.30;99.90
6690;DHT22;3382;51.576;8.076;2022-10-17T16:56:00;23.30;99.90
6690;DHT22;3382;51.576;8.076;2022-10-17T16:58:27;23.20;99.90
6690;DHT22;3382;51.576;8.076;2022-10-17T17:00:58;23.30;99.90
6690;DHT22;3382;51.576;8.076;2022-10-17T17:03:24;23.30;99.90
6690;DHT22;3382;51.576;8.076;2022-10-17T17:05:50;23.30;99.90
6690;DHT22;3382;51.576;8.076;2022-10-17T17:08:16;23.30;99.90
6690;DHT22;3382;51.576;8.076;2022-10-17T17:10:48;23.30;99.90
6690;DHT22;3382;51.576;8.076;2022-10-17T17:13:15;23.00;99.90
6690;DHT22;3382;51.576;8.076;2022-10-17T17:15:41;22.90;99.90
6690;DHT22;3382;51.576;8.076;2022-10-17T17:18:07;22.80;99.90
6690;DHT22;3382;51.576;8.076;2022-10-17T17:20:32;22.70;99.90
6690;DHT22;3382;51.576;8.076;2022-10-17T17:22:58;22.60;99.90
6690;DHT22;3382;51.576;8.076;2022-10-17T17:25:24;22.60;99.90
6690;DHT22;3382;51.576;8.076;2022-10-17T17:27:50;22.50;99.90
6690;DHT22;3382;51.576;8.076;2022-10-17T17:30:16;22.50;99.90
6690;DHT22;3382;51.576;8.076;2022-10-17T17:32:41;22.50;99.90
6690;DHT22;3382;51.576;8.076;2022-10-17T17:35:07;22.60;99.90
6690;DHT22;3382;51.576;8.076;2022-10-17T17:37:33;22.50;99.90
6690;DHT22;3382;51.576;8.076;2022-10-17T17:39:59;22.40;99.90
6690;DHT22;3382;51.576;8.076;2022-10-17T17:42:25;22.40;99.90
6690;DHT22;3382;51.576;8.076;2022-10-17T17:44:51;22.40;99.90
6690;DHT22;3382;51.576;8.076;2022-10-17T17:47:17;22.30;99.90
6690;DHT22;3382;51.576;8.076;2022-10-17T17:49:43;22.30;99.90
6690;DHT22;3382;51.576;8.076;2022-10-17T17:52:08;22.40;99.90
6690;DHT22;3382;51.576;8.076;2022-10-17T17:54:34;22.30;99.90
6690;DHT22;3382;51.576;8.076;2022-10-17T17:56:59;22.20;99.90
6690;DHT22;3382;51.576;8.076;2022-10-17T17:59:25;22.20;99.90
6690;DHT22;3382;51.576;8.076;2022-10-17T18:01:50;22.20;99.90
6690;DHT22;3382;51.576;8.076;2022-10-17T18:04:16;22.30;99.90
6690;DHT22;3382;51.576;8.076;2022-10-17T18:06:42;22.20;99.90
6690;DHT22;3382;51.576;8.076;2022-10-17T18:09:08;22.10;99.90
6690;DHT22;3382;51.576;8.076;2022-10-17T18:11:34;21.90;99.90
6690;DHT22;3382;51.576;8.076;2022-10-17T18:14:05;21.80;99.90
6690;DHT22;3382;51.576;8.076;2022-10-17T18:16:33;21.70;99.90